createdAt,value
2016-01-27T00:00:13.573Z,72.55
2016-01-27T00:01:13.545Z,72.64
2016-01-27T00:02:13.578Z,72.26
2016-01-27T00:03:13.567Z,72.26
2016-01-27T00:04:13.554Z,72.16
2016-01-27T00:05:13.572Z,72.26
2016-01-27T00:06:13.574Z,72.64
2016-01-27T00:07:13.580Z,72.07
2016-01-27T00:08:13.583Z,72.07
2016-01-27T00:09:13.585Z,72.26
2016-01-27T00:10:13.571Z,72.16
2016-01-27T00:11:13.574Z,71.97
2016-01-27T00:12:13.578Z,71.97
2016-01-27T00:13:13.596Z,71.41
2016-01-27T00:14:13.568Z,71.69
2016-01-27T00:15:13.586Z,71.69
2016-01-27T00:16:13.576Z,71.12
2016-01-27T00:17:13.578Z,71.02
2016-01-27T00:18:13.582Z,71.41
2016-01-27T00:19:13.585Z,71.12
2016-01-27T00:20:13.634Z,71.22
2016-01-27T00:21:13.575Z,71.02
2016-01-27T00:22:13.592Z,71.02
2016-01-27T00:23:13.583Z,71.59
2016-01-27T00:24:13.585Z,71.59
2016-01-27T00:25:13.588Z,71.78
2016-01-27T00:26:13.591Z,71.59
2016-01-27T00:27:13.578Z,72.16
2016-01-27T00:28:13.597Z,72.35
2016-01-27T00:29:13.585Z,72.26
2016-01-27T00:30:13.587Z,72.16
2016-01-27T00:31:13.590Z,72.92
2016-01-27T00:32:13.594Z,73.49
2016-01-27T00:33:13.596Z,73.36
2016-01-27T00:34:13.583Z,73.46
2016-01-27T00:35:13.617Z,73.27
2016-01-27T00:36:13.589Z,73.18
2016-01-27T00:37:13.593Z,73.08
2016-01-27T00:38:13.595Z,73.36
2016-01-27T00:39:13.597Z,73.65
2016-01-27T00:40:13.585Z,74.12
2016-01-27T00:41:13.604Z,74.98
2016-01-27T00:42:13.591Z,75.74
2016-01-27T00:43:13.593Z,75.26
2016-01-27T00:44:13.596Z,75.26
2016-01-27T00:45:13.600Z,75.17
2016-01-27T00:46:13.602Z,75.64
2016-01-27T00:47:13.606Z,75.26
2016-01-27T00:48:13.608Z,75.07
2016-01-27T00:49:13.596Z,75.93
2016-01-27T00:50:13.581Z,76.03
2016-01-27T00:51:13.615Z,74.98
2016-01-27T00:52:13.587Z,75.55
2016-01-27T00:53:13.605Z,75.17
2016-01-27T00:54:13.595Z,75.26
2016-01-27T00:55:13.598Z,75.84
2016-01-27T00:56:13.601Z,75.74
2016-01-27T00:57:13.604Z,75.64
2016-01-27T00:58:13.622Z,75.55
2016-01-27T00:59:13.612Z,75.74
2016-01-27T01:00:13.614Z,75.26
2016-01-27T01:01:13.601Z,75.17
2016-01-27T01:02:13.604Z,74.88
2016-01-27T01:03:13.594Z,74.98
2016-01-27T01:04:13.612Z,74.79
2016-01-27T01:05:13.599Z,74.98
2016-01-27T01:06:13.619Z,76.12
2016-01-27T01:07:13.606Z,75.93
2016-01-27T01:08:13.609Z,76.03
2016-01-27T01:09:13.612Z,75.17
2016-01-27T01:10:13.615Z,74.88
2016-01-27T01:11:13.618Z,74.12
2016-01-27T01:12:13.620Z,74.22
2016-01-27T01:13:13.623Z,74.41
2016-01-27T01:14:13.610Z,74.12
2016-01-27T01:15:13.631Z,74.69
2016-01-27T01:16:13.617Z,75.07
2016-01-27T01:17:13.620Z,75.26
2016-01-27T01:18:13.607Z,74.69
2016-01-27T01:19:13.601Z,75.07
2016-01-27T01:20:13.618Z,74.98
2016-01-27T01:21:13.608Z,75.07
2016-01-27T01:22:13.612Z,74.69
2016-01-27T01:23:13.615Z,74.41
2016-01-27T01:24:13.605Z,74.12
2016-01-27T01:25:13.608Z,74.69
2016-01-27T01:26:13.594Z,74.41
2016-01-27T01:27:13.596Z,74.22
2016-01-27T01:28:13.601Z,74.51
2016-01-27T01:29:13.603Z,75.07
2016-01-27T01:30:13.622Z,75.07
2016-01-27T01:31:13.608Z,75.07
2016-01-27T01:32:13.611Z,75.26
2016-01-27T01:33:13.600Z,74.6
2016-01-27T01:34:13.633Z,74.88
2016-01-27T01:35:13.637Z,74.63
2016-01-27T01:36:13.609Z,74.35
2016-01-27T01:37:13.615Z,74.26
2016-01-27T01:38:13.617Z,74.35
2016-01-27T01:39:13.621Z,73.88
2016-01-27T01:40:13.608Z,73.97
2016-01-27T01:41:13.613Z,73.4
2016-01-27T01:42:13.616Z,73.3
2016-01-27T01:43:13.634Z,73.11
2016-01-27T01:44:13.639Z,73.02
2016-01-27T01:45:13.610Z,73.3
2016-01-27T01:46:13.614Z,73.3
2016-01-27T01:47:13.617Z,72.55
2016-01-27T01:48:13.619Z,72.74
2016-01-27T01:49:13.653Z,72.92
2016-01-27T01:50:13.610Z,73.3
2016-01-27T01:51:13.626Z,73.69
2016-01-27T01:52:13.613Z,73.21
2016-01-27T01:53:13.634Z,73.4
2016-01-27T01:54:13.637Z,73.3
2016-01-27T01:55:13.623Z,73.59
2016-01-27T01:56:13.626Z,74.26
2016-01-27T01:57:13.614Z,73.4
2016-01-27T01:58:13.616Z,73.11
2016-01-27T01:59:13.636Z,73.4
2016-01-27T02:00:13.623Z,73.97
2016-01-27T02:01:13.626Z,74.35
2016-01-27T02:02:13.630Z,73.97
2016-01-27T02:03:13.648Z,73.49
2016-01-27T02:04:13.651Z,73.93
2016-01-27T02:05:13.729Z,73.93
2016-01-27T02:06:13.615Z,74.12
2016-01-27T02:07:13.609Z,73.84
2016-01-27T02:08:13.621Z,74.12
2016-01-27T02:09:13.600Z,74.31
2016-01-27T02:10:13.596Z,74.98
2016-01-27T02:11:13.580Z,75.17
2016-01-27T02:12:13.581Z,75.36
2016-01-27T02:13:13.580Z,75.74
2016-01-27T02:14:13.580Z,75.84
2016-01-27T02:15:13.582Z,75.74
2016-01-27T02:16:13.584Z,76.03
2016-01-27T02:17:13.585Z,76.4
2016-01-27T02:18:13.431Z,76.93
2016-01-27T02:19:13.575Z,77.64
2016-01-27T02:20:13.577Z,77.17
2016-01-27T02:21:13.568Z,77.36
2016-01-27T02:22:13.587Z,77.03
2016-01-27T02:23:13.574Z,77.12
2016-01-27T02:24:13.577Z,77.31
2016-01-27T02:25:13.579Z,77.98
2016-01-27T02:26:13.566Z,78.17
2016-01-27T02:27:13.569Z,77.98
2016-01-27T02:28:13.589Z,77.6
2016-01-27T02:29:13.576Z,77.7
2016-01-27T02:30:13.641Z,78.17
2016-01-27T02:31:13.567Z,78.36
2016-01-27T02:32:13.584Z,78.36
2016-01-27T02:33:13.572Z,78.36
2016-01-27T02:34:13.575Z,78.08
2016-01-27T02:35:13.577Z,77.98
2016-01-27T02:36:13.580Z,78.27
2016-01-27T02:37:13.584Z,78.55
2016-01-27T02:38:13.571Z,78.27
2016-01-27T02:39:13.573Z,78.55
2016-01-27T02:40:13.576Z,78.93
2016-01-27T02:41:13.564Z,79.03
2016-01-27T02:42:13.567Z,79.12
2016-01-27T02:43:13.569Z,79.22
2016-01-27T02:44:13.572Z,78.64
2016-01-27T02:45:13.575Z,78.59
2016-01-27T02:46:19.845Z,78.21
2016-01-27T02:47:13.582Z,78.21
2016-01-27T02:48:13.570Z,77.92
2016-01-27T02:49:13.573Z,77.73
2016-01-27T02:50:13.567Z,78.11
2016-01-27T02:51:13.601Z,77.83
2016-01-27T02:52:13.573Z,78.4
2016-01-27T02:53:13.563Z,78.02
2016-01-27T02:54:13.565Z,77.36
2016-01-27T02:55:13.568Z,77.36
2016-01-27T02:56:13.587Z,77.36
2016-01-27T02:57:13.559Z,76.97
2016-01-27T02:58:13.577Z,77.17
2016-01-27T02:59:13.564Z,77.07
2016-01-27T03:00:13.568Z,77.07
2016-01-27T03:01:13.570Z,76.88
2016-01-27T03:02:13.578Z,76.4
2016-01-27T03:03:13.580Z,76.88
2016-01-27T03:04:13.583Z,76.97
2016-01-27T03:05:13.586Z,77.17
2016-01-27T03:06:13.559Z,76.97
2016-01-27T03:07:13.562Z,76.78
2016-01-27T03:08:13.564Z,77.26
2016-01-27T03:09:13.570Z,76.97
2016-01-27T03:10:13.573Z,76.97
2016-01-27T03:11:13.576Z,76.4
2016-01-27T03:12:13.562Z,76.4
2016-01-27T03:13:13.564Z,76.5
2016-01-27T03:14:13.568Z,75.93
2016-01-27T03:15:13.572Z,76.12
2016-01-27T03:16:13.560Z,75.84
2016-01-27T03:17:13.614Z,76.59
2016-01-27T03:18:13.572Z,76.59
2016-01-27T03:19:13.575Z,76.69
2016-01-27T03:20:13.580Z,76.69
2016-01-27T03:21:13.562Z,76.12
2016-01-27T03:22:13.564Z,76.31
2016-01-27T03:23:13.567Z,77.45
2016-01-27T03:24:13.588Z,76.69
2016-01-27T03:25:13.576Z,77.26
2016-01-27T03:26:13.563Z,76.69
2016-01-27T03:27:13.566Z,76.25
2016-01-27T03:28:13.663Z,76.06
2016-01-27T03:29:13.681Z,76.25
2016-01-27T03:30:13.684Z,76.25
2016-01-27T03:31:13.579Z,76.16
2016-01-27T03:32:13.582Z,76.63
2016-01-27T03:33:13.570Z,76.54
2016-01-27T03:34:13.572Z,76.54
2016-01-27T03:35:13.574Z,76.44
2016-01-27T03:36:13.578Z,77.11
2016-01-27T03:37:13.581Z,77.11
2016-01-27T03:38:13.584Z,77.2
2016-01-27T03:39:13.586Z,77.01
2016-01-27T03:40:13.591Z,76.4
2016-01-27T03:41:13.578Z,76.44
2016-01-27T03:42:13.581Z,76.31
2016-01-27T03:43:13.584Z,77.17
2016-01-27T03:44:13.586Z,77.17
2016-01-27T03:45:13.574Z,77.45
2016-01-27T03:46:13.561Z,77.17
2016-01-27T03:47:13.595Z,77.26
2016-01-27T03:48:13.598Z,77.36
2016-01-27T03:49:13.586Z,77.36
2016-01-27T03:50:13.589Z,77.64
2016-01-27T03:51:13.592Z,77.64
2016-01-27T03:52:13.594Z,78.11
2016-01-27T03:53:13.572Z,77.64
2016-01-27T03:54:13.590Z,77.36
2016-01-27T03:55:13.593Z,77.64
2016-01-27T03:56:13.566Z,77.55
2016-01-27T03:57:13.569Z,77.83
2016-01-27T03:58:13.589Z,77.92
2016-01-27T03:59:13.607Z,77.83
2016-01-27T04:00:13.609Z,78.02
2016-01-27T04:01:13.580Z,78.11
2016-01-27T04:02:13.585Z,77.55
2016-01-27T04:03:13.587Z,77.55
2016-01-27T04:04:13.590Z,77.49
2016-01-27T04:05:13.578Z,77.92
2016-01-27T04:06:13.580Z,77.68
2016-01-27T04:07:13.583Z,77.45
2016-01-27T04:08:13.601Z,77.11
2016-01-27T04:09:13.589Z,77.01
2016-01-27T04:10:13.577Z,77.11
2016-01-27T04:11:13.583Z,77.3
2016-01-27T04:12:13.585Z,77.39
2016-01-27T04:13:13.572Z,77.2
2016-01-27T04:14:13.575Z,77.11
2016-01-27T04:15:13.610Z,77.49
2016-01-27T04:16:13.599Z,77.77
2016-01-27T04:17:13.585Z,77.58
2016-01-27T04:18:13.574Z,77.97
2016-01-27T04:19:13.576Z,77.87
2016-01-27T04:20:13.579Z,77.87
2016-01-27T04:21:13.582Z,77.68
2016-01-27T04:22:13.586Z,78.06
2016-01-27T04:23:13.581Z,77.58
2016-01-27T04:24:13.586Z,77.2
2016-01-27T04:25:13.591Z,77.01
2016-01-27T04:26:13.578Z,77.01
2016-01-27T04:27:13.612Z,76.92
2016-01-27T04:28:13.584Z,77.11
2016-01-27T04:29:13.587Z,77.2
2016-01-27T04:30:13.590Z,76.44
2016-01-27T04:31:13.592Z,76.35
2016-01-27T04:32:13.595Z,76.25
2016-01-27T04:33:13.615Z,76.54
2016-01-27T04:34:13.587Z,76.63
2016-01-27T04:35:13.590Z,76.63
2016-01-27T04:36:13.592Z,75.78
2016-01-27T04:37:13.578Z,75.96
2016-01-27T04:38:13.581Z,76.63
2016-01-27T04:39:13.584Z,76.54
2016-01-27T04:40:13.591Z,76.16
2016-01-27T04:41:13.593Z,75.78
2016-01-27T04:42:13.596Z,76.06
2016-01-27T04:43:13.584Z,75.78
2016-01-27T04:44:13.587Z,76.06
2016-01-27T04:45:13.653Z,75.96
2016-01-27T04:46:13.608Z,76.16
2016-01-27T04:47:13.596Z,76.54
2016-01-27T04:48:13.598Z,76.25
2016-01-27T04:49:13.600Z,76.44
2016-01-27T04:50:13.588Z,76.44
2016-01-27T04:51:13.606Z,76.82
2016-01-27T04:52:13.595Z,76.92
2016-01-27T04:53:13.614Z,76.35
2016-01-27T04:54:13.601Z,77.11
2016-01-27T04:55:13.603Z,77.11
2016-01-27T04:56:13.607Z,77.2
2016-01-27T04:57:13.611Z,77.2
2016-01-27T04:58:13.613Z,76.82
2016-01-27T04:59:13.616Z,76.73
2016-01-27T05:00:13.605Z,77.11
2016-01-27T05:01:13.609Z,77.3
2016-01-27T05:02:13.611Z,76.92
2016-01-27T05:03:13.613Z,76.82
2016-01-27T05:04:13.603Z,76.92
2016-01-27T05:05:13.606Z,77.01
2016-01-27T05:06:13.609Z,77.11
2016-01-27T05:07:13.615Z,77.11
2016-01-27T05:08:13.617Z,76.35
2016-01-27T05:09:13.479Z,76.25
2016-01-27T05:10:13.606Z,76.63
2016-01-27T05:11:13.611Z,76.25
2016-01-27T05:12:13.614Z,76.57
2016-01-27T05:13:13.616Z,76.44
2016-01-27T05:14:13.603Z,76.82
2016-01-27T05:15:13.607Z,76.92
2016-01-27T05:16:13.611Z,76.92
2016-01-27T05:17:13.613Z,77.11
2016-01-27T05:18:13.617Z,76.92
2016-01-27T05:19:13.620Z,76.73
2016-01-27T05:20:13.611Z,77.58
2016-01-27T05:21:13.614Z,77.39
2016-01-27T05:22:13.622Z,77.39
2016-01-27T05:23:13.625Z,77.3
2016-01-27T05:24:13.612Z,77.39
2016-01-27T05:25:13.629Z,77.11
2016-01-27T05:26:13.619Z,77.01
2016-01-27T05:27:13.668Z,77.49
2016-01-27T05:28:13.624Z,77.68
2016-01-27T05:29:13.615Z,77.58
2016-01-27T05:30:13.619Z,77.49
2016-01-27T05:31:13.652Z,76.73
2016-01-27T05:32:13.654Z,76.96
2016-01-27T05:33:13.628Z,77.11
2016-01-27T05:34:13.630Z,77.11
2016-01-27T05:35:13.695Z,76.92
2016-01-27T05:36:13.651Z,76.92
2016-01-27T05:37:13.674Z,77.53
2016-01-27T05:38:13.646Z,77.53
2016-01-27T05:39:13.663Z,77.01
2016-01-27T05:40:13.638Z,77.24
2016-01-27T05:41:13.657Z,76.48
2016-01-27T05:42:13.660Z,76.48
2016-01-27T05:43:13.662Z,76.48
2016-01-27T05:44:13.652Z,76.39
2016-01-27T05:45:13.655Z,77.15
2016-01-27T05:46:13.657Z,77.05
2016-01-27T05:47:13.660Z,76.76
2016-01-27T05:48:13.665Z,77.34
2016-01-27T05:49:13.667Z,76.39
2016-01-27T05:50:13.694Z,76.48
2016-01-27T05:51:13.665Z,76.96
2016-01-27T05:52:13.653Z,77.24
2016-01-27T05:53:13.671Z,77.34
2016-01-27T05:54:13.658Z,76.96
2016-01-27T05:55:13.740Z,77.15
2016-01-27T05:56:13.679Z,77.05
2016-01-27T05:57:13.666Z,76.29
2016-01-27T05:58:13.668Z,76.39
2016-01-27T05:59:13.672Z,76.01
2016-01-27T06:00:13.674Z,76.48
2016-01-27T06:01:13.676Z,76.57
2016-01-27T06:02:13.679Z,76.1
2016-01-27T06:03:13.667Z,76.2
2016-01-27T06:04:13.687Z,76.29
2016-01-27T06:05:13.658Z,76.01
2016-01-27T06:06:13.680Z,76.39
2016-01-27T06:07:13.667Z,76.67
2016-01-27T06:08:13.686Z,76.48
2016-01-27T06:09:13.688Z,76.29
2016-01-27T06:10:13.675Z,76.39
2016-01-27T06:11:13.680Z,76.39
2016-01-27T06:12:13.682Z,77.15
2016-01-27T06:13:13.685Z,77.15
2016-01-27T06:14:13.704Z,77.05
2016-01-27T06:15:13.707Z,77.43
2016-01-27T06:16:13.678Z,77.34
2016-01-27T06:17:13.697Z,77.15
2016-01-27T06:18:13.700Z,76.48
2016-01-27T06:19:13.688Z,76.39
2016-01-27T06:20:13.690Z,77.24
2016-01-27T06:21:13.694Z,77.28
2016-01-27T06:22:13.699Z,77.19
2016-01-27T06:23:13.702Z,77.37
2016-01-27T06:24:13.704Z,76.39
2016-01-27T06:25:13.785Z,76.42
2016-01-27T06:26:13.805Z,76.04
2016-01-27T06:27:13.760Z,75.95
2016-01-27T06:28:13.717Z,75.85
2016-01-27T06:29:13.704Z,76.52
2016-01-27T06:30:13.709Z,76.81
2016-01-27T06:31:13.711Z,76.33
2016-01-27T06:32:13.715Z,75.95
2016-01-27T06:33:13.719Z,75.76
2016-01-27T06:34:13.721Z,76.04
2016-01-27T06:35:13.724Z,75.38
2016-01-27T06:36:13.726Z,74.71
2016-01-27T06:37:13.731Z,74.52
2016-01-27T06:38:13.733Z,73.99
2016-01-27T06:39:13.736Z,74.08
2016-01-27T06:40:13.739Z,74.46
2016-01-27T06:41:13.726Z,73.89
2016-01-27T06:42:13.745Z,73.8
2016-01-27T06:43:13.747Z,73.7
2016-01-27T06:44:13.755Z,73.22
2016-01-27T06:45:13.742Z,73.41
2016-01-27T06:46:13.759Z,73.41
2016-01-27T06:47:13.762Z,72.94
2016-01-27T06:48:13.754Z,72.78
2016-01-27T06:49:13.772Z,72.41
2016-01-27T06:50:13.759Z,72.75
2016-01-27T06:51:13.762Z,73.26
2016-01-27T06:52:13.765Z,72.69
2016-01-27T06:53:13.769Z,72.6
2016-01-27T06:54:13.757Z,72.6
2016-01-27T06:55:13.759Z,72.97
2016-01-27T06:56:13.762Z,73.26
2016-01-27T06:57:13.764Z,72.69
2016-01-27T06:58:13.766Z,72.69
2016-01-27T06:59:13.771Z,72.75
2016-01-27T07:00:13.789Z,72.94
2016-01-27T07:01:13.776Z,73.41
2016-01-27T07:02:13.781Z,73.22
2016-01-27T07:03:13.799Z,73.41
2016-01-27T07:04:13.786Z,73.61
2016-01-27T07:05:13.789Z,73.22
2016-01-27T07:06:13.792Z,73.22
2016-01-27T07:07:13.794Z,72.85
2016-01-27T07:08:13.797Z,72.65
2016-01-27T07:09:13.799Z,72.94
2016-01-27T07:10:13.805Z,72.94
2016-01-27T07:11:13.807Z,73.51
2016-01-27T07:12:13.809Z,73.32
2016-01-27T07:13:13.817Z,73.61
2016-01-27T07:14:13.803Z,73.51
2016-01-27T07:15:13.869Z,72.94
2016-01-27T07:16:13.809Z,73.51
2016-01-27T07:17:13.813Z,73.32
2016-01-27T07:18:13.816Z,73.41
2016-01-27T07:19:13.818Z,73.57
2016-01-27T07:20:13.821Z,74.18
2016-01-27T07:21:13.824Z,74.04
2016-01-27T07:22:13.825Z,74.08
2016-01-27T07:23:13.862Z,74.43
2016-01-27T07:24:13.835Z,74.04
2016-01-27T07:25:13.838Z,74.33
2016-01-27T07:26:13.856Z,74.33
2016-01-27T07:27:13.859Z,74.62
2016-01-27T07:28:13.846Z,74.33
2016-01-27T07:29:13.848Z,74.43
2016-01-27T07:30:13.851Z,74.43
2016-01-27T07:31:13.869Z,74.43
2016-01-27T07:32:13.857Z,74.24
2016-01-27T07:33:13.859Z,74.8
2016-01-27T07:34:13.863Z,74.62
2016-01-27T07:35:13.882Z,74.9
2016-01-27T07:36:13.727Z,75.32
2016-01-27T07:37:13.874Z,74.94
2016-01-27T07:38:13.876Z,74.08
2016-01-27T07:39:13.880Z,73.89
2016-01-27T07:40:13.882Z,73.13
2016-01-27T07:41:13.887Z,73.51
2016-01-27T07:42:13.890Z,73.8
2016-01-27T07:43:13.893Z,73.51
2016-01-27T07:44:13.896Z,73.41
2016-01-27T07:45:13.901Z,73.17
2016-01-27T07:46:13.904Z,72.6
2016-01-27T07:47:13.907Z,72.41
2016-01-27T07:48:13.895Z,72.41
2016-01-27T07:49:13.898Z,71.83
2016-01-27T07:50:13.948Z,71.45
2016-01-27T07:51:13.920Z,70.97
2016-01-27T07:52:13.907Z,70.59
2016-01-27T07:53:13.925Z,70.82
2016-01-27T07:54:13.931Z,70.34
2016-01-27T07:55:13.933Z,70.53
2016-01-27T07:56:13.939Z,70.34
2016-01-27T07:57:13.941Z,70.82
2016-01-27T07:58:13.929Z,70.15
2016-01-27T07:59:13.932Z,70.15
2016-01-27T08:00:13.951Z,70.44
2016-01-27T08:01:13.937Z,70.25
2016-01-27T08:02:13.940Z,69.68
2016-01-27T08:03:13.963Z,69.1
2016-01-27T08:04:13.949Z,69.58
2016-01-27T08:05:13.952Z,69.1
2016-01-27T08:06:13.971Z,68.53
2016-01-27T08:07:13.974Z,68.53
2016-01-27T08:08:13.976Z,68.66
2016-01-27T08:09:13.964Z,68.57
2016-01-27T08:10:13.968Z,68.57
2016-01-27T08:11:13.986Z,68.66
2016-01-27T08:12:14.005Z,68.85
2016-01-27T08:13:14.446Z,68.76
2016-01-27T08:14:13.998Z,68.18
2016-01-27T08:15:13.986Z,68.38
2016-01-27T08:16:13.988Z,68.28
2016-01-27T08:17:13.991Z,68.28
2016-01-27T08:18:13.994Z,68.28
2016-01-27T08:19:14.012Z,68.28
2016-01-27T08:20:14.000Z,68.76
2016-01-27T08:21:14.022Z,68.76
2016-01-27T08:22:14.040Z,67.9
2016-01-27T08:23:14.028Z,67.9
2016-01-27T08:24:14.031Z,67.99
2016-01-27T08:25:14.033Z,67.9
2016-01-27T08:26:14.036Z,67.52
2016-01-27T08:27:14.038Z,67.33
2016-01-27T08:28:14.042Z,67.33
2016-01-27T08:29:14.044Z,67.61
2016-01-27T08:30:14.046Z,68.09
2016-01-27T08:31:14.052Z,67.71
2016-01-27T08:32:14.058Z,67.23
2016-01-27T08:33:14.061Z,67.9
2016-01-27T08:34:14.063Z,67.8
2016-01-27T08:35:14.066Z,67.8
2016-01-27T08:36:14.069Z,68.18
2016-01-27T08:37:14.071Z,68.28
2016-01-27T08:38:14.075Z,68.28
2016-01-27T08:39:14.078Z,67.99
2016-01-27T08:40:14.163Z,68.28
2016-01-27T08:41:14.087Z,68.47
2016-01-27T08:42:14.105Z,68.28
2016-01-27T08:43:14.093Z,67.71
2016-01-27T08:44:14.096Z,67.8
2016-01-27T08:45:14.099Z,68.47
2016-01-27T08:46:14.101Z,67.71
2016-01-27T08:47:14.104Z,67.9
2016-01-27T08:48:14.107Z,67.42
2016-01-27T08:49:14.115Z,67.23
2016-01-27T08:50:14.118Z,67.33
2016-01-27T08:51:14.136Z,67.52
2016-01-27T08:52:14.139Z,67.33
2016-01-27T08:53:14.127Z,67.52
2016-01-27T08:54:14.145Z,67.14
2016-01-27T08:55:14.148Z,66.66
2016-01-27T08:56:14.155Z,66.85
2016-01-27T08:57:14.157Z,66.56
2016-01-27T08:58:14.160Z,66.56
2016-01-27T08:59:14.163Z,66.18
2016-01-27T09:00:14.182Z,66.38
2016-01-27T09:01:19.482Z,65.99
2016-01-27T09:02:14.171Z,65.52
2016-01-27T09:03:14.174Z,66.18
2016-01-27T09:04:14.180Z,65.83
2016-01-27T09:05:14.167Z,65.74
2016-01-27T09:06:14.185Z,65.61
2016-01-27T09:07:14.189Z,65.45
2016-01-27T09:08:14.192Z,65.17
2016-01-27T09:09:14.194Z,65.26
2016-01-27T09:10:14.557Z,65.17
2016-01-27T09:11:14.203Z,64.97
2016-01-27T09:12:14.222Z,65.07
2016-01-27T09:13:14.225Z,65.26
2016-01-27T09:14:14.228Z,64.97
2016-01-27T09:15:14.247Z,64.59
2016-01-27T09:16:14.234Z,64.5
2016-01-27T09:17:14.237Z,63.83
2016-01-27T09:18:14.242Z,63.73
2016-01-27T09:19:14.245Z,63.54
2016-01-27T09:20:14.253Z,63.83
2016-01-27T09:21:14.256Z,63.64
2016-01-27T09:22:14.260Z,64.02
2016-01-27T09:23:14.255Z,63.83
2016-01-27T09:24:14.259Z,63.76
2016-01-27T09:25:14.292Z,63.64
2016-01-27T09:26:14.282Z,63.35
2016-01-27T09:27:14.363Z,63.26
2016-01-27T09:28:14.381Z,63.29
2016-01-27T09:29:14.369Z,63.16
2016-01-27T09:30:14.341Z,63
2016-01-27T09:31:14.297Z,63.16
2016-01-27T09:32:14.299Z,63.26
2016-01-27T09:33:14.305Z,63.54
2016-01-27T09:34:14.308Z,63.29
2016-01-27T09:35:14.373Z,63.07
2016-01-27T09:36:14.313Z,63.16
2016-01-27T09:37:14.332Z,63.29
2016-01-27T09:38:14.336Z,63.07
2016-01-27T09:39:14.338Z,63.45
2016-01-27T09:40:14.341Z,63
2016-01-27T09:41:14.358Z,63.07
2016-01-27T09:42:14.348Z,63.35
2016-01-27T09:43:14.351Z,62.71
2016-01-27T09:44:14.356Z,63
2016-01-27T09:45:14.391Z,62.4
2016-01-27T09:46:14.362Z,62.43
2016-01-27T09:47:14.380Z,62.91
2016-01-27T09:48:14.402Z,62.52
2016-01-27T09:49:14.389Z,62.24
2016-01-27T09:50:14.376Z,62.71
2016-01-27T09:51:14.379Z,62.43
2016-01-27T09:52:14.413Z,62.71
2016-01-27T09:53:14.400Z,62.71
2016-01-27T09:54:14.411Z,62.24
2016-01-27T09:55:14.495Z,61.86
2016-01-27T09:56:14.420Z,61.38
2016-01-27T09:57:14.423Z,61.66
2016-01-27T09:58:14.425Z,61.76
2016-01-27T09:59:14.459Z,61.95
2016-01-27T10:00:14.461Z,61.95
2016-01-27T10:01:14.451Z,61.57
2016-01-27T10:02:14.453Z,61.76
2016-01-27T10:03:14.440Z,61.29
2016-01-27T10:04:14.475Z,61.29
2016-01-27T10:05:14.462Z,61
2016-01-27T10:06:14.465Z,60.71
2016-01-27T10:07:14.467Z,61.19
2016-01-27T10:08:14.475Z,60.61
2016-01-27T10:09:14.477Z,60.52
2016-01-27T10:10:14.528Z,60.33
2016-01-27T10:11:14.483Z,60.33
2016-01-27T10:12:14.503Z,60.42
2016-01-27T10:13:14.506Z,60.17
2016-01-27T10:14:14.508Z,59.78
2016-01-27T10:15:14.559Z,59.31
2016-01-27T10:16:14.515Z,59.88
2016-01-27T10:17:14.705Z,59.31
2016-01-27T10:18:14.520Z,58.83
2016-01-27T10:19:14.538Z,58.07
2016-01-27T10:20:14.620Z,58.36
2016-01-27T10:21:14.561Z,58.26
2016-01-27T10:22:14.563Z,57.97
2016-01-27T10:23:14.550Z,57.87
2016-01-27T10:24:14.553Z,58.16
2016-01-27T10:25:14.556Z,58.1
2016-01-27T10:26:14.561Z,57.78
2016-01-27T10:27:14.582Z,57.21
2016-01-27T10:28:14.585Z,57.14
2016-01-27T10:29:14.588Z,57.24
2016-01-27T10:30:14.654Z,57.53
2016-01-27T10:31:14.595Z,57.33
2016-01-27T10:32:14.614Z,56.67
2016-01-27T10:33:14.601Z,57.04
2016-01-27T10:34:14.637Z,56.85
2016-01-27T10:35:14.670Z,56.28
2016-01-27T10:36:14.627Z,56.67
2016-01-27T10:37:14.629Z,56.47
2016-01-27T10:38:14.635Z,56.57
2016-01-27T10:39:14.637Z,56.18
2016-01-27T10:40:14.672Z,56.47
2016-01-27T10:41:14.644Z,56.38
2016-01-27T10:42:14.662Z,56.57
2016-01-27T10:43:14.665Z,55.99
2016-01-27T10:44:14.668Z,55.8
2016-01-27T10:45:14.689Z,56.09
2016-01-27T10:46:14.691Z,56.18
2016-01-27T10:47:14.695Z,56.57
2016-01-27T10:48:14.697Z,56.18
2016-01-27T10:49:14.701Z,56.57
2016-01-27T10:50:14.796Z,56.28
2016-01-27T10:51:14.736Z,55.8
2016-01-27T10:52:14.724Z,55.8
2016-01-27T10:53:14.711Z,55.61
2016-01-27T10:54:14.715Z,55.8
2016-01-27T10:55:14.732Z,56.47
2016-01-27T10:56:14.737Z,55.99
2016-01-27T10:57:14.752Z,56.09
2016-01-27T10:58:14.738Z,55.71
2016-01-27T10:59:14.757Z,56.38
2016-01-27T11:00:14.792Z,55.52
2016-01-27T11:01:14.748Z,55.52
2016-01-27T11:02:14.766Z,55.8
2016-01-27T11:03:14.785Z,55.42
2016-01-27T11:04:14.788Z,55.52
2016-01-27T11:05:14.837Z,55.52
2016-01-27T11:06:14.793Z,55.61
2016-01-27T11:07:14.812Z,55.04
2016-01-27T11:08:14.798Z,55.42
2016-01-27T11:09:14.802Z,55.32
2016-01-27T11:10:14.805Z,55.23
2016-01-27T11:11:14.802Z,55.99
2016-01-27T11:12:14.810Z,55.42
2016-01-27T11:13:14.802Z,55.16
2016-01-27T11:14:14.794Z,54.97
2016-01-27T11:15:14.803Z,55.74
2016-01-27T11:16:14.802Z,54.02
2016-01-27T11:17:14.808Z,54.21
2016-01-27T11:18:14.807Z,53.92
2016-01-27T11:19:14.791Z,54.02
2016-01-27T11:20:14.852Z,54.39
2016-01-27T11:21:14.806Z,54.21
2016-01-27T11:22:14.807Z,53.92
2016-01-27T11:23:14.808Z,53.82
2016-01-27T11:24:14.828Z,53.44
2016-01-27T11:25:14.829Z,53.82
2016-01-27T11:26:14.825Z,53.25
2016-01-27T11:27:14.843Z,53.92
2016-01-27T11:28:14.831Z,53.44
2016-01-27T11:29:14.849Z,53.92
2016-01-27T11:30:14.866Z,53.63
2016-01-27T11:31:14.854Z,53.63
2016-01-27T11:32:14.857Z,53.25
2016-01-27T11:33:14.890Z,53.63
2016-01-27T11:34:14.892Z,53.44
2016-01-27T11:35:14.913Z,52.96
2016-01-27T11:36:14.885Z,52.87
2016-01-27T11:37:14.887Z,53.25
2016-01-27T11:38:14.905Z,52.58
2016-01-27T11:39:14.911Z,52.29
2016-01-27T11:40:14.976Z,52.29
2016-01-27T11:41:14.917Z,52.87
2016-01-27T11:42:14.922Z,52.87
2016-01-27T11:43:14.925Z,53.06
2016-01-27T11:44:14.943Z,52.87
2016-01-27T11:45:15.039Z,52.87
2016-01-27T11:46:14.935Z,52.87
2016-01-27T11:47:14.953Z,52.29
2016-01-27T11:48:14.971Z,52.29
2016-01-27T11:49:14.958Z,51.72
2016-01-27T11:50:15.072Z,51.15
2016-01-27T11:51:14.981Z,50.76
2016-01-27T11:52:14.984Z,50.95
2016-01-27T11:53:15.019Z,51.24
2016-01-27T11:54:14.990Z,51.05
2016-01-27T11:55:15.102Z,51.81
2016-01-27T11:56:15.006Z,51.72
2016-01-27T11:57:15.024Z,50.76
2016-01-27T11:58:15.058Z,51.24
2016-01-27T11:59:15.030Z,51.72
2016-01-27T12:00:15.079Z,51.81
2016-01-27T12:01:15.035Z,50.48
2016-01-27T12:02:15.053Z,50.48
2016-01-27T12:03:15.056Z,50.95
2016-01-27T12:04:15.074Z,50.95
2016-01-27T12:05:15.061Z,51.72
2016-01-27T12:06:15.079Z,50.95
2016-01-27T12:07:15.082Z,50.95
2016-01-27T12:08:15.085Z,51.05
2016-01-27T12:09:15.104Z,51.15
2016-01-27T12:10:15.091Z,51.05
2016-01-27T12:11:15.110Z,51.24
2016-01-27T12:12:15.113Z,51.62
2016-01-27T12:13:15.115Z,51.24
2016-01-27T12:14:15.119Z,51.24
2016-01-27T12:15:15.122Z,51.24
2016-01-27T12:16:15.141Z,51.15
2016-01-27T12:17:15.143Z,51.53
2016-01-27T12:18:15.146Z,51.7
2016-01-27T12:19:15.153Z,51.7
2016-01-27T12:20:15.218Z,52.08
2016-01-27T12:21:15.173Z,51.89
2016-01-27T12:22:15.176Z,52.08
2016-01-27T12:23:15.184Z,52.65
2016-01-27T12:24:15.186Z,52.46
2016-01-27T12:25:15.189Z,52.17
2016-01-27T12:26:15.191Z,52.17
2016-01-27T12:27:15.216Z,52.26
2016-01-27T12:28:15.219Z,52.55
2016-01-27T12:29:15.221Z,51.89
2016-01-27T12:30:15.254Z,52.08
2016-01-27T12:31:15.210Z,52.17
2016-01-27T12:32:15.218Z,51.89
2016-01-27T12:33:15.235Z,51.31
2016-01-27T12:34:15.239Z,51.6
2016-01-27T12:35:15.289Z,51.12
2016-01-27T12:36:15.278Z,51.7
2016-01-27T12:37:15.265Z,51.31
2016-01-27T12:38:15.251Z,52.17
2016-01-27T12:39:15.270Z,52.17
2016-01-27T12:40:15.293Z,51.41
2016-01-27T12:41:15.295Z,51.03
2016-01-27T12:42:15.267Z,50.93
2016-01-27T12:43:15.132Z,50.93
2016-01-27T12:44:15.290Z,51.12
2016-01-27T12:45:15.355Z,50.35
2016-01-27T12:46:15.311Z,50.16
2016-01-27T12:47:15.332Z,50.26
2016-01-27T12:48:15.318Z,50.35
2016-01-27T12:49:15.320Z,50.35
2016-01-27T12:50:15.323Z,50.45
2016-01-27T12:51:15.327Z,50.35
2016-01-27T12:52:15.330Z,50.16
2016-01-27T12:53:15.364Z,49.8
2016-01-27T12:54:15.351Z,50.07
2016-01-27T12:55:15.360Z,49.52